Time;durP1;ratioP1;P1;durP2;ratioP2;P2;SDS_P1;SDS_P2;PMS_P1;PMS_P2;Temp;Humidity;BMP_temperature;BMP_pressure;BME280_temperature;BME280_humidity;BME280_pressure;Samples;Min_cycle;Max_cycle;Signal;HPM_P1;HPM_P2
2022/07/22 00:02:15;;;;;;;9.57;8.87;;;22.30;99.90;;;;;;5094722;28;20535;-68
2022/07/22 00:04:42;;;;;;;9.77;8.83;;;22.20;99.90;;;;;;5094421;28;20910;-68
2022/07/22 00:07:09;;;;;;;9.63;8.73;;;22.30;99.90;;;;;;5094935;28;20526;-69
2022/07/22 00:09:36;;;;;;;9.80;9.00;;;22.30;99.90;;;;;;5094271;28;20547;-68
2022/07/22 00:12:04;;;;;;;11.00;10.00;;;22.20;99.90;;;;;;5094646;28;20535;-68
2022/07/22 00:14:31;;;;;;;9.27;8.53;;;22.10;99.90;;;;;;5094381;28;20559;-68
2022/07/22 00:16:58;;;;;;;10.03;8.90;;;22.10;99.90;;;;;;5094460;28;20534;-68
2022/07/22 00:19:25;;;;;;;10.47;9.47;;;22.00;99.90;;;;;;5094363;28;20448;-68
2022/07/22 00:21:52;;;;;;;10.67;9.77;;;22.00;99.90;;;;;;5094284;28;20447;-68
2022/07/22 00:24:20;;;;;;;11.10;10.10;;;22.00;99.90;;;;;;5094008;28;20571;-68
2022/07/22 00:26:47;;;;;;;10.40;9.47;;;22.00;99.90;;;;;;5094383;28;20463;-68
2022/07/22 00:29:15;;;;;;;10.10;9.20;;;22.00;99.90;;;;;;5094085;28;20443;-68
2022/07/22 00:31:42;;;;;;;9.30;8.50;;;22.00;99.90;;;;;;5093992;28;20996;-68
2022/07/22 00:34:09;;;;;;;10.00;9.20;;;22.00;99.90;;;;;;5093655;28;20538;-68
2022/07/22 00:36:36;;;;;;;11.43;10.43;;;22.00;99.90;;;;;;5094032;28;20538;-68
2022/07/22 00:39:03;;;;;;;10.33;9.40;;;22.00;99.90;;;;;;5094069;28;20846;-68
2022/07/22 00:41:30;;;;;;;10.13;9.23;;;22.00;99.90;;;;;;5094012;28;20523;-68
2022/07/22 00:44:00;;;;;;;9.80;8.97;;;22.00;99.90;;;;;;5093670;28;20486;-68
2022/07/22 00:46:29;;;;;;;10.43;9.63;;;22.00;99.90;;;;;;5093877;28;20530;-68
2022/07/22 00:48:56;;;;;;;10.60;9.80;;;22.00;99.90;;;;;;5093810;28;20452;-68
2022/07/22 00:51:24;;;;;;;11.20;10.20;;;22.00;99.90;;;;;;5093927;28;20527;-68
2022/07/22 00:53:53;;;;;;;10.20;9.30;;;22.00;99.90;;;;;;5093394;28;20559;-68
2022/07/22 00:56:21;;;;;;;10.67;9.73;;;22.00;99.90;;;;;;5093775;28;20451;-68
2022/07/22 00:58:50;;;;;;;10.60;9.60;;;21.90;99.90;;;;;;5093695;28;20523;-68
2022/07/22 01:01:17;;;;;;;10.87;9.77;;;21.80;99.90;;;;;;5093728;28;20432;-68
2022/07/22 01:03:46;;;;;;;10.00;9.10;;;21.90;99.90;;;;;;5093395;28;20837;-68
2022/07/22 01:06:13;;;;;;;10.17;9.30;;;21.90;99.90;;;;;;5093233;28;20606;-68
2022/07/22 01:08:40;;;;;;;10.63;9.60;;;21.90;99.90;;;;;;5093727;28;20440;-68
2022/07/22 01:11:08;;;;;;;9.87;9.07;;;21.90;99.90;;;;;;5093609;28;20476;-68
2022/07/22 01:13:35;;;;;;;10.47;9.47;;;21.90;99.90;;;;;;5093496;28;20883;-68
2022/07/22 01:16:02;;;;;;;10.63;9.60;;;21.90;99.90;;;;;;5093138;28;20976;-68
2022/07/22 01:18:29;;;;;;;11.10;10.17;;;21.90;99.90;;;;;;5093600;28;20839;-68
2022/07/22 01:20:57;;;;;;;10.53;9.70;;;21.90;99.90;;;;;;5093564;28;20443;-68
2022/07/22 01:23:24;;;;;;;11.00;10.00;;;21.90;99.90;;;;;;5093407;28;20568;-68
2022/07/22 01:25:51;;;;;;;10.63;9.70;;;21.80;99.90;;;;;;5093370;28;20440;-68
2022/07/22 01:28:18;;;;;;;10.33;9.43;;;21.80;99.90;;;;;;5093500;28;20527;-68
2022/07/22 01:30:45;;;;;;;11.40;10.23;;;21.90;99.90;;;;;;5093157;28;20456;-68
2022/07/22 01:33:12;;;;;;;12.00;10.97;;;21.80;99.90;;;;;;5093181;28;20558;-68
2022/07/22 01:35:39;;;;;;;11.47;10.57;;;21.60;99.90;;;;;;5093518;28;20531;-68
2022/07/22 01:38:07;;;;;;;11.00;10.10;;;21.70;99.90;;;;;;5093407;28;20535;-68
2022/07/22 01:40:34;;;;;;;11.53;10.53;;;21.60;99.90;;;;;;5093152;28;20531;-68
2022/07/22 01:43:02;;;;;;;11.67;10.67;;;21.70;99.90;;;;;;5093179;28;20554;-68
2022/07/22 01:45:29;;;;;;;12.30;10.87;;;21.60;99.90;;;;;;5093188;28;20452;-68
2022/07/22 01:47:56;;;;;;;12.10;10.90;;;21.60;99.90;;;;;;5093338;28;20629;-68
2022/07/22 01:50:22;;;;;;;12.50;11.40;;;21.60;99.90;;;;;;5093204;28;20847;-68
2022/07/22 01:52:49;;;;;;;11.87;10.67;;;21.60;99.90;;;;;;5093065;28;20531;-69
2022/07/22 01:55:18;;;;;;;12.07;10.87;;;21.60;99.90;;;;;;5092886;28;20933;-68
2022/07/22 01:57:45;;;;;;;10.90;9.90;;;21.40;99.90;;;;;;5093357;28;20527;-68
2022/07/22 02:00:12;;;;;;;11.10;10.20;;;21.30;99.90;;;;;;5093251;28;20552;-68
2022/07/22 02:02:39;;;;;;;11.63;10.70;;;21.40;99.90;;;;;;5093247;28;20478;-68
2022/07/22 02:05:07;;;;;;;11.30;10.37;;;21.30;99.90;;;;;;5093017;28;20573;-68
2022/07/22 02:07:34;;;;;;;11.60;10.50;;;21.20;99.90;;;;;;5093187;28;20534;-68
2022/07/22 02:10:01;;;;;;;11.60;10.50;;;21.30;99.90;;;;;;5093045;28;21020;-68
2022/07/22 02:12:29;;;;;;;11.30;10.30;;;21.30;99.90;;;;;;5092811;28;20541;-68
2022/07/22 02:14:56;;;;;;;11.50;10.60;;;21.40;99.90;;;;;;5092879;28;20452;-68
2022/07/22 02:17:23;;;;;;;11.87;10.80;;;21.30;99.90;;;;;;5093058;28;20533;-68
2022/07/22 02:19:50;;;;;;;12.17;11.07;;;21.30;99.90;;;;;;5096394;28;21005;-68
2022/07/22 02:22:17;;;;;;;11.80;10.80;;;21.30;99.90;;;;;;5096673;28;20845;-68
2022/07/22 02:24:44;;;;;;;11.67;10.50;;;21.30;99.90;;;;;;5095971;28;20487;-68
2022/07/22 02:27:11;;;;;;;11.70;10.60;;;21.30;99.90;;;;;;5096538;28;20517;-68
2022/07/22 02:29:39;;;;;;;11.60;10.60;;;21.30;99.90;;;;;;5096266;28;20501;-68
2022/07/22 02:32:06;;;;;;;11.53;10.53;;;21.30;99.90;;;;;;5096263;28;20533;-68
2022/07/22 02:34:33;;;;;;;11.37;10.37;;;21.30;99.90;;;;;;5096083;28;20467;-68
2022/07/22 02:37:00;;;;;;;11.47;10.57;;;21.30;99.90;;;;;;5096333;28;20526;-68
2022/07/22 02:39:27;;;;;;;10.77;9.90;;;21.30;99.90;;;;;;5096188;28;20533;-68
2022/07/22 02:41:53;;;;;;;11.07;10.07;;;21.20;99.90;;;;;;5096035;28;20534;-68
2022/07/22 02:44:20;;;;;;;10.90;10.00;;;21.30;99.90;;;;;;5095717;28;20578;-68
2022/07/22 02:46:49;;;;;;;11.57;10.47;;;21.20;99.90;;;;;;5096139;28;20440;-68
2022/07/22 02:49:15;;;;;;;12.50;11.30;;;21.10;99.90;;;;;;5096344;28;20527;-68
2022/07/22 02:51:42;;;;;;;12.63;11.53;;;21.10;99.90;;;;;;5095970;28;20469;-69
2022/07/22 02:54:09;;;;;;;12.10;11.03;;;21.10;99.90;;;;;;5095500;28;20482;-68
2022/07/22 02:56:36;;;;;;;12.43;11.27;;;21.10;99.90;;;;;;5096016;28;20534;-68
2022/07/22 02:59:03;;;;;;;12.43;11.33;;;21.00;99.90;;;;;;5095909;28;20862;-68
2022/07/22 03:01:30;;;;;;;12.07;11.07;;;21.00;99.90;;;;;;5095833;28;20489;-68
2022/07/22 03:03:58;;;;;;;12.87;11.67;;;21.00;99.90;;;;;;5095418;28;20578;-67
2022/07/22 03:06:25;;;;;;;13.13;11.93;;;21.00;99.90;;;;;;5095719;28;20530;-68
2022/07/22 03:08:52;;;;;;;13.50;12.30;;;20.90;99.90;;;;;;5095748;28;20783;-69
2022/07/22 03:11:19;;;;;;;13.23;12.03;;;20.80;99.90;;;;;;5095458;28;20447;-68
2022/07/22 03:13:45;;;;;;;13.70;12.37;;;20.70;99.90;;;;;;5095312;28;20556;-68
2022/07/22 03:16:12;;;;;;;12.60;11.50;;;20.70;99.90;;;;;;5095582;28;20534;-68
2022/07/22 03:18:40;;;;;;;13.83;12.53;;;20.70;99.90;;;;;;5095499;28;20526;-68
2022/07/22 03:21:08;;;;;;;13.17;12.00;;;20.70;99.90;;;;;;5095401;28;20443;-68
2022/07/22 03:23:35;;;;;;;13.07;11.17;;;20.60;99.90;;;;;;5095026;28;20467;-68
2022/07/22 03:26:01;;;;;;;13.43;12.23;;;20.70;99.90;;;;;;5095150;28;20530;-68
2022/07/22 03:28:28;;;;;;;14.57;13.20;;;20.70;99.90;;;;;;5095593;28;20442;-68
2022/07/22 03:30:55;;;;;;;13.53;12.33;;;20.50;99.90;;;;;;5095318;28;20535;-68
2022/07/22 03:33:22;;;;;;;14.10;12.73;;;20.50;99.90;;;;;;5095179;28;20557;-68
2022/07/22 03:35:49;;;;;;;15.33;13.93;;;20.50;99.90;;;;;;5094774;28;20541;-68
2022/07/22 03:38:17;;;;;;;13.33;12.13;;;20.50;99.90;;;;;;5095358;28;20442;-68
2022/07/22 03:40:44;;;;;;;14.90;13.37;;;20.50;99.90;;;;;;5095109;28;20445;-68
2022/07/22 03:43:11;;;;;;;15.63;14.13;;;20.30;99.90;;;;;;5094954;28;20497;-68
2022/07/22 03:45:38;;;;;;;15.47;13.97;;;20.20;99.90;;;;;;5094740;28;20899;-68
2022/07/22 03:48:05;;;;;;;14.63;13.17;;;20.20;99.90;;;;;;5094757;28;20447;-68
2022/07/22 03:50:32;;;;;;;14.17;12.87;;;20.10;99.90;;;;;;5095018;28;20526;-68
2022/07/22 03:52:59;;;;;;;14.40;13.00;;;20.20;99.90;;;;;;5094522;28;20845;-68
2022/07/22 03:55:27;;;;;;;16.43;13.20;;;20.20;99.90;;;;;;5094466;28;20449;-68
2022/07/22 03:57:54;;;;;;;16.00;12.83;;;20.20;99.90;;;;;;5094823;28;20803;-68
2022/07/22 04:00:21;;;;;;;14.30;13.00;;;20.30;99.90;;;;;;5094737;28;20557;-68
2022/07/22 04:02:48;;;;;;;13.93;12.63;;;20.40;99.90;;;;;;5094562;28;20521;-68
2022/07/22 04:05:15;;;;;;;15.00;13.40;;;20.40;99.90;;;;;;5094419;28;20577;-68
2022/07/22 04:07:41;;;;;;;15.43;14.03;;;20.40;99.90;;;;;;5094418;28;20532;-68
2022/07/22 04:10:09;;;;;;;14.70;13.20;;;20.30;99.90;;;;;;5094567;28;20538;-68
2022/07/22 04:12:40;;;;;;;14.63;13.17;;;20.30;99.90;;;;;;5094491;28;20538;-68
2022/07/22 04:15:09;;;;;;;13.87;12.47;;;20.40;99.90;;;;;;5094348;28;20469;-68
2022/07/22 04:17:35;;;;;;;15.07;13.37;;;20.30;99.90;;;;;;5094170;28;20448;-68
2022/07/22 04:20:02;;;;;;;13.90;12.60;;;20.30;99.90;;;;;;5094198;28;20533;-68
2022/07/22 04:22:30;;;;;;;13.47;12.13;;;20.20;99.90;;;;;;5094344;28;20495;-68
2022/07/22 04:24:56;;;;;;;14.17;12.77;;;20.10;99.90;;;;;;5093730;28;20575;-68
2022/07/22 04:27:24;;;;;;;14.40;13.10;;;20.10;99.90;;;;;;5094280;28;20533;-68
2022/07/22 04:29:52;;;;;;;15.20;13.70;;;20.20;99.90;;;;;;5094127;28;20798;-68
2022/07/22 04:32:19;;;;;;;13.70;12.47;;;20.20;99.90;;;;;;5094800;28;20473;-68
2022/07/22 04:34:46;;;;;;;14.23;12.70;;;20.10;99.90;;;;;;5094137;28;20542;-68
2022/07/22 04:37:13;;;;;;;16.90;13.10;;;20.10;99.90;;;;;;5094276;28;20863;-68
2022/07/22 04:39:40;;;;;;;14.87;13.47;;;20.10;99.90;;;;;;5094041;28;20534;-68
2022/07/22 04:42:07;;;;;;;15.57;13.70;;;20.20;99.90;;;;;;5093467;28;20450;-68
2022/07/22 04:44:34;;;;;;;15.70;14.27;;;20.10;99.90;;;;;;5093692;28;20983;-68
2022/07/22 04:47:02;;;;;;;13.83;12.53;;;20.00;99.90;;;;;;5094065;28;20443;-68
2022/07/22 04:49:29;;;;;;;14.43;13.03;;;19.80;99.90;;;;;;5093776;28;20492;-68
2022/07/22 04:51:56;;;;;;;14.23;12.73;;;19.70;99.90;;;;;;5093930;28;20848;-68
2022/07/22 04:54:23;;;;;;;16.20;14.60;;;19.60;99.90;;;;;;5093513;28;20904;-68
2022/07/22 04:56:49;;;;;;;14.57;13.17;;;19.50;99.90;;;;;;5093759;28;20527;-68
2022/07/22 04:59:16;;;;;;;15.10;13.70;;;19.50;99.90;;;;;;5093990;28;20452;-68
2022/07/22 05:01:43;;;;;;;15.70;14.10;;;19.60;99.90;;;;;;5093811;28;20552;-68
2022/07/22 05:04:11;;;;;;;16.17;14.57;;;19.60;99.90;;;;;;5093480;28;20508;-68
2022/07/22 05:06:38;;;;;;;15.83;14.13;;;19.50;99.90;;;;;;5093750;28;20529;-68
2022/07/22 05:09:06;;;;;;;15.17;13.67;;;19.50;99.90;;;;;;5093631;28;20983;-68
2022/07/22 05:11:32;;;;;;;14.23;12.90;;;19.50;99.90;;;;;;5093619;28;20447;-68
2022/07/22 05:13:59;;;;;;;15.63;14.07;;;19.50;99.90;;;;;;5093219;28;20552;-69
2022/07/22 05:16:26;;;;;;;17.17;15.30;;;19.60;99.90;;;;;;5093533;28;20437;-68
2022/07/22 05:18:53;;;;;;;14.57;13.13;;;19.60;99.90;;;;;;5093627;28;20531;-68
2022/07/22 05:21:21;;;;;;;15.00;13.60;;;19.80;99.90;;;;;;5093405;28;20448;-68
2022/07/22 05:23:48;;;;;;;16.40;14.70;;;19.80;99.90;;;;;;5093274;28;20466;-68
2022/07/22 05:26:15;;;;;;;15.20;13.80;;;19.70;99.90;;;;;;5093256;28;21062;-68
2022/07/22 05:28:42;;;;;;;16.43;14.60;;;19.70;99.90;;;;;;5093409;28;20529;-68
2022/07/22 05:31:09;;;;;;;14.97;13.57;;;19.70;99.90;;;;;;5093322;28;20534;-68
2022/07/22 05:33:35;;;;;;;15.10;13.63;;;19.90;99.90;;;;;;5093253;28;20506;-68
2022/07/22 05:36:03;;;;;;;14.17;12.77;;;20.00;99.90;;;;;;5093280;28;20530;-68
2022/07/22 05:38:33;;;;;;;15.83;14.30;;;20.10;99.90;;;;;;5093337;28;20438;-68
2022/07/22 05:41:00;;;;;;;16.23;14.73;;;20.20;99.90;;;;;;5093449;28;20533;-68
2022/07/22 05:43:26;;;;;;;17.63;13.77;;;20.10;99.90;;;;;;5093107;28;20991;-68
2022/07/22 05:45:53;;;;;;;16.20;14.60;;;20.20;99.90;;;;;;5093168;28;20488;-68
2022/07/22 05:48:20;;;;;;;16.63;14.90;;;20.20;99.90;;;;;;5093364;28;20512;-68
2022/07/22 05:50:47;;;;;;;15.90;14.30;;;20.20;99.90;;;;;;5093498;28;20521;-68
2022/07/22 05:53:14;;;;;;;16.50;14.80;;;20.20;99.90;;;;;;5094234;28;20566;-68
2022/07/22 05:55:43;;;;;;;16.40;14.80;;;20.10;99.90;;;;;;5097031;28;20430;-68
2022/07/22 05:58:09;;;;;;;16.07;14.40;;;20.10;99.90;;;;;;5096958;28;21011;-68
2022/07/22 06:00:36;;;;;;;15.53;14.03;;;20.10;99.90;;;;;;5097075;28;20525;-68
2022/07/22 06:03:03;;;;;;;14.80;13.30;;;20.10;99.90;;;;;;5097050;28;20470;-68
2022/07/22 06:05:30;;;;;;;16.13;14.63;;;20.20;99.90;;;;;;5096393;28;20573;-68
2022/07/22 06:07:57;;;;;;;18.20;15.37;;;20.10;99.90;;;;;;5096931;28;20535;-68
2022/07/22 06:10:24;;;;;;;17.83;16.13;;;20.20;99.90;;;;;;5096862;28;20537;-68
2022/07/22 06:12:52;;;;;;;16.57;14.57;;;20.10;99.90;;;;;;5096797;28;20440;-68
2022/07/22 06:15:19;;;;;;;18.23;16.43;;;20.20;99.90;;;;;;5096626;28;20441;-67
2022/07/22 06:17:46;;;;;;;16.43;14.83;;;20.20;99.90;;;;;;5096653;28;20532;-68
2022/07/22 06:20:13;;;;;;;16.07;14.57;;;20.20;99.90;;;;;;5096823;28;20525;-68
2022/07/22 06:22:40;;;;;;;16.07;14.57;;;20.20;99.90;;;;;;5096646;28;20534;-68
2022/07/22 06:25:08;;;;;;;16.00;13.83;;;20.40;99.90;;;;;;5096250;28;20577;-68
2022/07/22 06:27:35;;;;;;;15.33;13.83;;;20.50;99.90;;;;;;5096821;28;20447;-68
2022/07/22 06:30:04;;;;;;;16.93;15.27;;;20.50;99.90;;;;;;5096520;28;20529;-68
2022/07/22 06:32:31;;;;;;;16.23;14.50;;;20.50;99.90;;;;;;5096452;28;20521;-68
2022/07/22 06:34:58;;;;;;;16.50;15.00;;;20.50;99.90;;;;;;5096365;28;20466;-68
2022/07/22 06:37:25;;;;;;;15.20;13.73;;;20.60;99.90;;;;;;5096435;28;20792;-68
2022/07/22 06:39:52;;;;;;;16.20;14.60;;;20.50;99.90;;;;;;5096510;28;20442;-68
2022/07/22 06:42:19;;;;;;;16.23;14.30;;;20.50;99.90;;;;;;5096276;28;20546;-67
2022/07/22 06:44:46;;;;;;;16.43;14.80;;;20.50;99.90;;;;;;5095969;28;20555;-68
2022/07/22 06:47:14;;;;;;;16.23;14.70;;;20.60;99.90;;;;;;5096324;28;20530;-68
2022/07/22 06:49:41;;;;;;;16.87;15.00;;;20.60;99.90;;;;;;5096345;28;20844;-68
2022/07/22 06:52:08;;;;;;;16.13;14.50;;;20.60;99.90;;;;;;5096075;28;20481;-68
2022/07/22 06:54:35;;;;;;;16.10;14.40;;;20.70;99.90;;;;;;5095517;28;20555;-68
2022/07/22 06:57:02;;;;;;;16.83;15.17;;;20.80;99.90;;;;;;5096091;28;20988;-68
2022/07/22 06:59:29;;;;;;;15.53;14.03;;;20.90;99.90;;;;;;5095989;28;20525;-68
2022/07/22 07:01:56;;;;;;;17.87;15.93;;;20.90;99.90;;;;;;5095823;28;20543;-68
2022/07/22 07:04:24;;;;;;;15.87;14.47;;;21.00;99.90;;;;;;5094930;28;20554;-68
2022/07/22 07:06:51;;;;;;;16.37;13.50;;;21.00;99.90;;;;;;5095705;28;20567;-68
2022/07/22 07:09:18;;;;;;;14.37;12.70;;;21.30;99.90;;;;;;5095754;28;20531;-67
2022/07/22 07:11:44;;;;;;;16.43;14.80;;;21.30;99.90;;;;;;5095707;28;20526;-68
2022/07/22 07:14:11;;;;;;;15.03;13.37;;;21.30;99.90;;;;;;5095061;28;20475;-69
2022/07/22 07:16:38;;;;;;;16.70;15.00;;;21.50;99.90;;;;;;5095319;28;20914;-68
2022/07/22 07:19:05;;;;;;;15.77;14.30;;;21.60;99.90;;;;;;5095576;28;20856;-68
2022/07/22 07:21:33;;;;;;;15.47;13.97;;;21.70;99.90;;;;;;5095546;28;20535;-67
2022/07/22 07:24:01;;;;;;;16.63;15.03;;;21.90;99.90;;;;;;5095060;28;20566;-68
2022/07/22 07:26:28;;;;;;;15.30;13.80;;;22.00;99.90;;;;;;5095306;28;20471;-68
2022/07/22 07:28:55;;;;;;;14.77;13.27;;;22.30;99.90;;;;;;5095272;28;20524;-68
2022/07/22 07:31:22;;;;;;;15.73;14.17;;;22.40;99.90;;;;;;5095305;28;20866;-68
2022/07/22 07:33:49;;;;;;;15.30;13.87;;;22.40;99.90;;;;;;5095108;28;20552;-68
2022/07/22 07:36:16;;;;;;;14.33;13.03;;;22.40;99.90;;;;;;5095211;28;20445;-68
2022/07/22 07:38:44;;;;;;;16.90;15.30;;;22.40;99.90;;;;;;5095054;28;20523;-68
2022/07/22 07:41:11;;;;;;;16.63;14.93;;;22.50;99.90;;;;;;5095146;28;20539;-67
2022/07/22 07:43:38;;;;;;;17.17;15.37;;;22.50;99.90;;;;;;5095002;28;20543;-68
2022/07/22 07:46:05;;;;;;;16.20;14.47;;;22.40;99.90;;;;;;5094556;28;21088;-68
2022/07/22 07:48:32;;;;;;;16.07;14.57;;;22.60;99.90;;;;;;5095061;28;20480;-68
2022/07/22 07:50:59;;;;;;;16.33;14.83;;;23.40;99.90;;;;;;5094811;28;20927;-68
2022/07/22 07:53:26;;;;;;;17.13;15.40;;;23.80;99.90;;;;;;5094639;28;20524;-68
2022/07/22 07:55:54;;;;;;;16.00;14.40;;;24.00;99.90;;;;;;5094665;28;20442;-68
2022/07/22 07:58:21;;;;;;;15.00;13.60;;;24.50;99.90;;;;;;5094474;28;20544;-68
2022/07/22 08:00:48;;;;;;;16.43;14.93;;;24.80;99.90;;;;;;5094722;28;20445;-68
2022/07/22 08:03:15;;;;;;;16.03;14.63;;;24.80;99.90;;;;;;5094847;28;20893;-68
2022/07/22 08:05:42;;;;;;;15.03;13.67;;;24.60;99.90;;;;;;5094416;28;20559;-68
2022/07/22 08:08:09;;;;;;;15.93;14.23;;;24.50;99.90;;;;;;5095073;28;20539;-68
2022/07/22 08:10:35;;;;;;;14.77;13.47;;;24.50;99.90;;;;;;5094714;28;20534;-68
2022/07/22 08:13:04;;;;;;;16.87;15.27;;;25.10;99.90;;;;;;5094213;28;21013;-68
2022/07/22 08:15:32;;;;;;;16.60;15.10;;;25.30;99.90;;;;;;5093551;28;20472;-68
2022/07/22 08:17:59;;;;;;;14.57;13.27;;;26.00;99.80;;;;;;5094571;28;20994;-68
2022/07/22 08:20:27;;;;;;;14.93;13.70;;;27.30;98.80;;;;;;5094460;28;20534;-68
2022/07/22 08:22:54;;;;;;;16.00;14.50;;;28.60;94.90;;;;;;5094311;28;20531;-68
2022/07/22 08:25:22;;;;;;;14.13;12.83;;;29.30;91.90;;;;;;5094086;28;20817;-68
2022/07/22 08:27:48;;;;;;;15.23;13.83;;;29.60;91.60;;;;;;5094274;28;20444;-68
2022/07/22 08:30:17;;;;;;;14.87;13.60;;;29.60;90.70;;;;;;5094219;28;20444;-68
2022/07/22 08:32:44;;;;;;;13.27;12.17;;;30.00;87.30;;;;;;5094102;28;20523;-69
2022/07/22 08:35:12;;;;;;;13.30;12.30;;;30.10;88.30;;;;;;5094067;28;20538;-68
2022/07/22 08:37:39;;;;;;;16.40;14.93;;;30.80;84.60;;;;;;5094059;28;20526;-68
2022/07/22 08:40:08;;;;;;;15.70;14.30;;;30.30;83.00;;;;;;5094105;28;20471;-68
2022/07/22 08:42:38;;;;;;;15.47;14.17;;;30.60;83.60;;;;;;5094023;28;20501;-68
2022/07/22 08:45:06;;;;;;;14.00;12.87;;;31.00;80.60;;;;;;5093820;28;20463;-68
2022/07/22 08:47:35;;;;;;;13.03;12.03;;;31.20;79.50;;;;;;5093843;28;20515;-69
2022/07/22 08:50:03;;;;;;;13.27;12.07;;;32.20;78.30;;;;;;5093977;28;20479;-68
2022/07/22 08:52:30;;;;;;;13.57;12.50;;;33.10;72.80;;;;;;5093998;28;20446;-68
2022/07/22 08:54:57;;;;;;;13.87;12.77;;;32.90;69.80;;;;;;5093535;28;20506;-69
2022/07/22 08:57:24;;;;;;;13.83;12.73;;;33.40;66.90;;;;;;5094072;28;20519;-69
2022/07/22 08:59:53;;;;;;;14.90;13.70;;;33.30;65.40;;;;;;5093900;28;20531;-68
2022/07/22 09:02:21;;;;;;;15.00;13.80;;;33.50;65.50;;;;;;5093697;28;20527;-66
2022/07/22 09:04:55;;;;;;;13.73;12.63;;;33.70;63.30;;;;;;5093193;28;20988;-66
2022/07/22 09:07:27;;;;;;;13.40;12.50;;;33.80;61.80;;;;;;5093713;28;20506;-66
2022/07/22 09:09:54;;;;;;;14.30;13.20;;;34.50;59.60;;;;;;5093702;28;20491;-66
2022/07/22 09:12:22;;;;;;;14.80;13.60;;;34.10;59.00;;;;;;5093746;28;20527;-69
2022/07/22 09:14:51;;;;;;;14.60;13.20;;;34.10;58.90;;;;;;5093153;28;20512;-69
2022/07/22 09:17:26;;;;;;;15.30;14.00;;;34.40;58.50;;;;;;5093601;28;20527;-69
2022/07/22 09:19:55;;;;;;;14.03;12.93;;;34.70;57.90;;;;;;5093630;28;20535;-67
2022/07/22 09:22:33;;;;;;;15.03;13.77;;;35.00;57.30;;;;;;5093589;28;20522;-67
2022/07/22 09:25:00;;;;;;;14.17;12.83;;;35.40;56.40;;;;;;5093405;28;20468;-67
2022/07/22 09:27:28;;;;;;;14.20;13.20;;;35.20;56.00;;;;;;5095093;28;20478;-66
2022/07/22 09:29:56;;;;;;;13.37;12.43;;;34.90;56.10;;;;;;5097592;28;20456;-66
2022/07/22 09:32:23;;;;;;;14.50;13.40;;;34.40;57.10;;;;;;5097619;28;20440;-67
2022/07/22 09:34:50;;;;;;;15.20;13.70;;;34.50;57.10;;;;;;5097395;28;20460;-67
2022/07/22 09:37:19;;;;;;;13.20;12.20;;;34.60;56.80;;;;;;5097425;28;20448;-67
2022/07/22 09:39:46;;;;;;;13.63;12.53;;;35.20;55.40;;;;;;5097517;28;20526;-67
2022/07/22 09:42:16;;;;;;;13.40;12.40;;;35.00;54.80;;;;;;5097354;28;20536;-67
2022/07/22 09:44:42;;;;;;;13.37;12.37;;;35.70;54.20;;;;;;5097198;28;20464;-69
2022/07/22 09:47:28;;;;;;;13.97;12.87;;;35.40;53.50;;;;;;5097304;28;20566;-69
2022/07/22 09:49:55;;;;;;;14.03;12.83;;;35.00;53.90;;;;;;5097209;28;20440;-69
2022/07/22 09:52:24;;;;;;;13.00;12.00;;;35.80;53.80;;;;;;5097174;28;20535;-69
2022/07/22 09:54:52;;;;;;;12.80;11.83;;;36.00;52.70;;;;;;5096534;28;20480;-69
2022/07/22 09:57:20;;;;;;;13.27;12.13;;;36.10;52.50;;;;;;5096908;28;20526;-69
2022/07/22 09:59:47;;;;;;;12.57;11.60;;;35.60;52.70;;;;;;5096937;28;20969;-69
2022/07/22 10:02:16;;;;;;;13.33;12.43;;;35.80;52.20;;;;;;5096892;28;20446;-67
2022/07/22 10:04:45;;;;;;;12.60;11.60;;;35.50;52.30;;;;;;5096506;28;21065;-67
2022/07/22 10:07:12;;;;;;;13.13;12.03;;;35.80;52.90;;;;;;5097058;28;20877;-67
2022/07/22 10:09:41;;;;;;;13.77;12.83;;;36.80;51.60;;;;;;5096938;28;20527;-67
2022/07/22 10:12:09;;;;;;;13.70;12.70;;;37.00;49.10;;;;;;5096673;28;20534;-67
2022/07/22 10:14:38;;;;;;;13.40;12.40;;;36.80;49.40;;;;;;5096707;28;20543;-69
2022/07/22 10:17:05;;;;;;;12.57;11.57;;;37.20;48.70;;;;;;5096782;28;20436;-69
2022/07/22 10:19:32;;;;;;;12.30;11.50;;;37.00;49.20;;;;;;5096708;28;20442;-69
2022/07/22 10:21:59;;;;;;;13.47;12.57;;;37.00;49.90;;;;;;5096624;28;20531;-67
2022/07/22 10:24:26;;;;;;;12.90;12.00;;;36.50;49.30;;;;;;5096411;28;20547;-69
2022/07/22 10:26:56;;;;;;;12.87;11.87;;;36.70;49.10;;;;;;5096486;28;20567;-69
2022/07/22 10:29:31;;;;;;;12.53;11.53;;;36.20;50.30;;;;;;5096870;28;20802;-69
2022/07/22 10:32:31;;;;;;;12.30;11.40;;;36.70;50.30;;;;;;5096396;28;20484;-69
2022/07/22 10:35:24;;;;;;;11.77;10.97;;;37.40;49.00;;;;;;5033797;28;20461;-69
2022/07/22 10:37:53;;;;;;;12.10;11.10;;;37.30;47.90;;;;;;5034298;28;20447;-69
2022/07/22 10:40:21;;;;;;;13.00;11.67;;;36.80;47.80;;;;;;5072438;28;20551;-69
2022/07/22 10:43:07;;;;;;;12.67;11.53;;;36.60;49.00;;;;;;5096150;28;20515;-69
2022/07/22 10:45:37;;;;;;;12.23;11.43;;;36.10;50.00;;;;;;5096102;28;20455;-69
2022/07/22 10:48:07;;;;;;;12.60;11.80;;;35.70;51.10;;;;;;5096065;28;20480;-69
2022/07/22 10:51:05;;;;;;;12.77;11.87;;;34.60;52.70;;;;;;5096158;28;20447;-69
2022/07/22 10:53:45;;;;;;;12.90;11.77;;;33.80;54.50;;;;;;5095273;28;21085;-69
2022/07/22 10:56:21;;;;;;;12.63;11.73;;;33.40;57.00;;;;;;5096087;28;20440;-67
2022/07/22 10:58:58;;;;;;;13.17;12.17;;;33.20;56.50;;;;;;5095904;28;20997;-69
2022/07/22 11:01:28;;;;;;;13.47;12.40;;;32.50;56.80;;;;;;5096113;28;20471;-69
2022/07/22 11:03:56;;;;;;;13.47;12.40;;;32.00;58.10;;;;;;5095366;28;20472;-69
2022/07/22 11:06:26;;;;;;;12.43;11.53;;;31.30;59.40;;;;;;5095870;28;20476;-68
2022/07/22 11:08:55;;;;;;;13.23;12.13;;;31.50;60.20;;;;;;5095612;28;20535;-69
2022/07/22 11:11:38;;;;;;;12.03;11.13;;;31.50;63.70;;;;;;5095753;28;20530;-69
2022/07/22 11:14:14;;;;;;;13.03;12.03;;;31.80;61.30;;;;;;5095326;28;20465;-69
2022/07/22 11:16:42;;;;;;;13.10;12.00;;;32.20;60.40;;;;;;5095495;28;20835;-69
2022/07/22 11:19:09;;;;;;;13.43;12.23;;;32.20;59.20;;;;;;5095684;28;20515;-69
2022/07/22 11:21:36;;;;;;;11.23;10.43;;;32.30;61.00;;;;;;5095585;28;20527;-69
2022/07/22 11:24:05;;;;;;;11.67;10.87;;;32.30;61.50;;;;;;5095040;28;20554;-69
2022/07/22 11:26:40;;;;;;;12.03;11.10;;;32.30;57.80;;;;;;5095340;28;21052;-69
2022/07/22 11:29:08;;;;;;;11.30;10.40;;;32.00;58.10;;;;;;5095409;28;20445;-69
2022/07/22 11:31:36;;;;;;;12.63;11.53;;;31.80;58.30;;;;;;5095379;28;20454;-69
2022/07/22 11:34:08;;;;;;;12.03;11.07;;;31.80;58.70;;;;;;5095056;28;20463;-69
2022/07/22 11:36:36;;;;;;;11.93;11.10;;;32.00;59.20;;;;;;5095217;28;20442;-69
2022/07/22 11:39:04;;;;;;;11.53;10.70;;;32.10;59.10;;;;;;5095218;28;20806;-69
2022/07/22 11:41:32;;;;;;;11.67;10.77;;;32.30;59.30;;;;;;5095164;28;20501;-69
2022/07/22 11:44:00;;;;;;;12.37;11.43;;;32.50;59.00;;;;;;5095149;28;20523;-69
2022/07/22 11:46:27;;;;;;;11.73;10.93;;;32.50;57.50;;;;;;5094802;28;20452;-69
2022/07/22 11:48:58;;;;;;;12.37;11.40;;;32.40;57.40;;;;;;5095306;28;20529;-69
2022/07/22 11:51:30;;;;;;;12.10;11.10;;;32.40;57.90;;;;;;5095050;28;20530;-69
2022/07/22 11:53:58;;;;;;;11.73;10.90;;;32.30;58.50;;;;;;5094631;28;20991;-69
2022/07/22 11:56:25;;;;;;;11.40;10.50;;;32.40;58.20;;;;;;5095213;28;20550;-69
2022/07/22 11:58:54;;;;;;;11.63;10.73;;;32.40;57.60;;;;;;5095040;28;20529;-69
2022/07/22 12:01:23;;;;;;;11.67;10.67;;;32.10;56.80;;;;;;5095051;28;20453;-69
2022/07/22 12:03:54;;;;;;;12.00;11.00;;;32.10;57.20;;;;;;5094489;28;20560;-69
2022/07/22 12:06:23;;;;;;;12.70;11.70;;;32.00;56.90;;;;;;5094701;28;20840;-69
2022/07/22 12:08:57;;;;;;;11.67;10.80;;;31.70;57.40;;;;;;5094439;28;20443;-69
2022/07/22 12:11:25;;;;;;;11.70;10.70;;;31.50;57.90;;;;;;5094601;28;20851;-69
2022/07/22 12:13:53;;;;;;;11.07;10.27;;;31.30;57.80;;;;;;5094655;28;20547;-68
2022/07/22 12:16:26;;;;;;;10.23;9.53;;;31.20;57.60;;;;;;5094403;28;20475;-68
2022/07/22 12:18:58;;;;;;;11.60;10.50;;;31.50;60.60;;;;;;5094725;28;20447;-69
2022/07/22 12:21:28;;;;;;;10.93;10.13;;;31.70;58.80;;;;;;5094541;28;20528;-68
2022/07/22 12:23:58;;;;;;;10.97;10.17;;;31.90;57.90;;;;;;5094268;28;20546;-69
2022/07/22 12:26:45;;;;;;;9.07;8.40;;;32.10;58.50;;;;;;5094233;28;20449;-69
2022/07/22 12:29:22;;;;;;;9.70;9.10;;;32.40;55.20;;;;;;5094244;28;20470;-69
2022/07/22 12:31:51;;;;;;;10.50;9.80;;;32.60;55.40;;;;;;5094318;28;20797;-68
2022/07/22 12:34:30;;;;;;;11.57;10.67;;;32.80;55.40;;;;;;5093770;28;20464;-69